createdAt,value
2023-12-16T00:00:08.784Z,101545.66
2023-12-16T00:02:40.139Z,101555.28
2023-12-16T00:05:09.944Z,101553.47
2023-12-16T00:07:38.675Z,101549.06
2023-12-16T00:10:11.141Z,101556.06
2023-12-16T00:12:41.973Z,101563.97
2023-12-16T00:15:12.597Z,101564.88
2023-12-16T00:17:41.947Z,101556.84
2023-12-16T00:20:11.989Z,101555.16
2023-12-16T00:22:41.354Z,101551.56
2023-12-16T00:25:10.724Z,101557.78
2023-12-16T00:27:39.751Z,101547.16
2023-12-16T00:30:11.245Z,101542.69
2023-12-16T00:32:41.369Z,101539.97
2023-12-16T00:35:10.889Z,101538.34
2023-12-16T00:37:39.792Z,101545.38
2023-12-16T00:40:10.655Z,101542.69
2023-12-16T00:42:39.244Z,101538.28
2023-12-16T00:45:09.931Z,101543.56
2023-12-16T00:47:39.901Z,101533.00
2023-12-16T00:50:10.463Z,101532.25
2023-12-16T00:52:39.021Z,101539.31
2023-12-16T00:55:08.516Z,101535.84
2023-12-16T00:57:37.629Z,101532.28
2023-12-16T01:00:07.945Z,101531.44
2023-12-16T01:02:38.597Z,101534.09
2023-12-16T01:05:06.760Z,101534.09
2023-12-16T01:07:35.442Z,101530.59
2023-12-16T01:10:04.244Z,101523.53
2023-12-16T01:12:32.858Z,101529.75
2023-12-16T01:15:01.398Z,101527.16
2023-12-16T01:17:30.238Z,101519.25
2023-12-16T01:20:00.415Z,101530.81
2023-12-16T01:22:29.080Z,101520.38
2023-12-16T01:24:58.771Z,101520.53
2023-12-16T01:27:27.410Z,101515.94
2023-12-16T01:29:55.929Z,101515.09
2023-12-16T01:32:24.535Z,101517.88
2023-12-16T01:34:53.062Z,101519.47
2023-12-16T01:37:23.110Z,101514.41
2023-12-16T01:39:51.701Z,101508.13
2023-12-16T01:42:20.819Z,101509.22
2023-12-16T01:44:49.355Z,101510.22
2023-12-16T01:47:18.774Z,101515.50
2023-12-16T01:49:49.220Z,101507.44
2023-12-16T01:52:18.262Z,101504.84
2023-12-16T01:54:48.540Z,101503.06
2023-12-16T01:57:17.660Z,101490.91
2023-12-16T01:59:46.740Z,101497.13
2023-12-16T02:02:16.922Z,101500.50
2023-12-16T02:04:45.503Z,101499.78
2023-12-16T02:07:14.217Z,101490.97
2023-12-16T02:09:42.953Z,101477.06
2023-12-16T02:12:13.065Z,101481.41
2023-12-16T02:14:41.646Z,101486.75
2023-12-16T02:17:10.272Z,101495.56
2023-12-16T02:19:39.468Z,101493.00
2023-12-16T02:22:08.201Z,101496.38
2023-12-16T02:24:40.019Z,101491.19
2023-12-16T02:27:08.643Z,101491.09
2023-12-16T02:29:37.202Z,101484.09
2023-12-16T02:32:06.636Z,101485.00
2023-12-16T02:34:35.416Z,101479.75
2023-12-16T02:37:07.614Z,101473.69
2023-12-16T02:39:38.098Z,101482.34
2023-12-16T02:42:07.107Z,101482.44
2023-12-16T02:44:36.091Z,101482.53
2023-12-16T02:47:04.907Z,101471.06
2023-12-16T02:49:33.543Z,101472.53
2023-12-16T02:52:02.358Z,101475.28
2023-12-16T02:54:30.972Z,101476.09
2023-12-16T02:57:01.203Z,101475.09
2023-12-16T02:59:29.728Z,101472.59
2023-12-16T03:01:58.457Z,101476.22
2023-12-16T03:04:27.223Z,101469.28
2023-12-16T03:06:55.938Z,101457.88
2023-12-16T03:09:24.689Z,101467.66
2023-12-16T03:11:53.325Z,101460.59
2023-12-16T03:14:23.536Z,101462.31
2023-12-16T03:16:52.181Z,101465.66
2023-12-16T03:19:20.813Z,101471.88
2023-12-16T03:21:49.534Z,101461.34
2023-12-16T03:24:18.339Z,101468.34
2023-12-16T03:26:47.481Z,101473.59
2023-12-16T03:29:17.288Z,101463.88
2023-12-16T03:31:50.487Z,101467.34
2023-12-16T03:34:19.597Z,101462.91
2023-12-16T03:36:48.210Z,101463.78
2023-12-16T03:39:16.819Z,101452.38
2023-12-16T03:41:45.352Z,101454.94
2023-12-16T03:44:14.371Z,101458.53
2023-12-16T03:46:42.843Z,101453.09
2023-12-16T03:49:12.878Z,101460.16
2023-12-16T03:51:41.462Z,101459.28
2023-12-16T03:54:10.981Z,101470.72
2023-12-16T03:56:39.567Z,101473.28
2023-12-16T03:59:08.034Z,101480.31
2023-12-16T04:01:36.573Z,101475.03
2023-12-16T04:04:05.485Z,101476.66
2023-12-16T04:06:35.411Z,101474.88
2023-12-16T04:09:04.576Z,101466.75
2023-12-16T04:11:33.171Z,101466.69
2023-12-16T04:14:01.831Z,101449.97
2023-12-16T04:16:30.458Z,101446.16
2023-12-16T04:18:59.209Z,101447.09
2023-12-16T04:21:27.742Z,101439.25
2023-12-16T04:23:58.001Z,101451.25
2023-12-16T04:26:27.238Z,101446.88
2023-12-16T04:28:55.673Z,101452.78
2023-12-16T04:31:24.357Z,101436.31
2023-12-16T04:33:55.027Z,101435.94
2023-12-16T04:36:23.856Z,101441.69
2023-12-16T04:38:52.400Z,101426.00
2023-12-16T04:41:22.353Z,101423.59
2023-12-16T04:43:51.915Z,101441.75
2023-12-16T04:46:22.321Z,101439.84
2023-12-16T04:48:51.224Z,101431.53
2023-12-16T04:51:22.243Z,101437.47
2023-12-16T04:53:50.843Z,101442.09
2023-12-16T04:56:19.403Z,101446.72
2023-12-16T04:58:49.497Z,101448.66
2023-12-16T05:01:18.210Z,101442.53
2023-12-16T05:03:49.081Z,101448.16
2023-12-16T05:06:17.910Z,101449.63
2023-12-16T05:08:46.439Z,101438.81
2023-12-16T05:11:15.188Z,101429.34
2023-12-16T05:13:44.991Z,101429.72
2023-12-16T05:16:20.257Z,101432.06
2023-12-16T05:18:49.141Z,101445.06
2023-12-16T05:21:17.747Z,101439.53
2023-12-16T05:23:46.336Z,101448.56
2023-12-16T05:26:14.940Z,101442.50
2023-12-16T05:28:43.549Z,101446.94
2023-12-16T05:31:12.061Z,101447.69
2023-12-16T05:33:44.960Z,101458.94
2023-12-16T05:36:13.713Z,101457.88
2023-12-16T05:38:42.316Z,101445.66
2023-12-16T05:41:11.055Z,101448.94
2023-12-16T05:43:39.484Z,101450.50
2023-12-16T05:46:08.449Z,101462.22
2023-12-16T05:48:37.884Z,101464.78
2023-12-16T05:51:09.010Z,101459.59
2023-12-16T05:53:37.414Z,101459.50
2023-12-16T05:56:07.813Z,101463.16
2023-12-16T05:58:36.558Z,101464.03
2023-12-16T06:01:08.067Z,101450.75
2023-12-16T06:03:36.760Z,101459.59
2023-12-16T06:06:05.994Z,101459.84
2023-12-16T06:08:36.197Z,101459.00
2023-12-16T06:11:04.951Z,101459.91
2023-12-16T06:13:33.647Z,101452.78
2023-12-16T06:16:12.429Z,101453.63
2023-12-16T06:18:46.030Z,101458.03
2023-12-16T06:21:14.594Z,101451.81
2023-12-16T06:23:44.968Z,101451.81
2023-12-16T06:26:13.716Z,101453.56
2023-12-16T06:28:42.304Z,101467.47
2023-12-16T06:31:17.460Z,101470.06
2023-12-16T06:33:46.693Z,101463.06
2023-12-16T06:36:15.278Z,101461.31
2023-12-16T06:38:45.409Z,101458.81
2023-12-16T06:41:14.024Z,101466.69
2023-12-16T06:43:42.417Z,101461.53
2023-12-16T06:46:11.203Z,101460.44
2023-12-16T06:48:39.780Z,101451.53
2023-12-16T06:51:08.651Z,101451.69
2023-12-16T06:53:38.145Z,101452.75
2023-12-16T06:56:10.427Z,101458.84
2023-12-16T06:58:40.036Z,101458.03
2023-12-16T07:01:08.803Z,101474.78
2023-12-16T07:03:37.876Z,101472.91
2023-12-16T07:06:07.289Z,101466.69
2023-12-16T07:08:38.061Z,101464.00
2023-12-16T07:11:08.450Z,101466.59
2023-12-16T07:13:37.065Z,101463.91
2023-12-16T07:16:06.736Z,101470.03
2023-12-16T07:18:35.928Z,101464.56
2023-12-16T07:21:08.454Z,101462.81
2023-12-16T07:23:39.714Z,101459.97
2023-12-16T07:26:16.969Z,101454.81
2023-12-16T07:28:48.415Z,101455.63
2023-12-16T07:31:17.760Z,101442.25
2023-12-16T07:33:46.907Z,101455.41
2023-12-16T07:36:24.306Z,101443.75
2023-12-16T07:38:53.245Z,101459.47
2023-12-16T07:41:23.320Z,101448.94
2023-12-16T07:43:55.062Z,101443.53
2023-12-16T07:46:23.961Z,101448.91
2023-12-16T07:48:52.907Z,101448.06
2023-12-16T07:51:27.488Z,101452.41
2023-12-16T07:53:59.978Z,101451.66
2023-12-16T07:56:31.323Z,101449.81
2023-12-16T07:59:00.055Z,101463.00
2023-12-16T08:01:28.729Z,101471.88
2023-12-16T08:03:57.455Z,101470.94
2023-12-16T08:06:26.163Z,101481.47
2023-12-16T08:08:54.787Z,101476.16
2023-12-16T08:11:23.826Z,101475.19
2023-12-16T08:13:54.047Z,101478.69
2023-12-16T08:16:22.876Z,101464.56
2023-12-16T08:18:51.726Z,101473.28
2023-12-16T08:21:22.272Z,101481.13
2023-12-16T08:23:51.112Z,101487.31
2023-12-16T08:26:20.079Z,101469.72
2023-12-16T08:28:49.328Z,101471.47
2023-12-16T08:31:20.510Z,101476.66
2023-12-16T08:33:49.435Z,101477.41
2023-12-16T08:36:18.217Z,101486.97
2023-12-16T08:38:47.151Z,101487.66
2023-12-16T08:41:18.767Z,101480.47
2023-12-16T08:43:47.455Z,101484.00
2023-12-16T08:46:16.261Z,101481.09
2023-12-16T08:48:46.379Z,101468.69
2023-12-16T08:51:15.068Z,101472.88
2023-12-16T08:53:43.761Z,101468.47
2023-12-16T08:56:12.324Z,101469.41
2023-12-16T08:58:41.101Z,101470.16
2023-12-16T09:01:09.966Z,101463.03
2023-12-16T09:03:38.811Z,101477.19
2023-12-16T09:06:10.240Z,101476.16
2023-12-16T09:08:39.043Z,101476.03
2023-12-16T09:11:08.010Z,101474.19
2023-12-16T09:13:36.924Z,101462.72
2023-12-16T09:16:06.779Z,101459.09
2023-12-16T09:18:38.513Z,101467.03
2023-12-16T09:21:09.433Z,101468.72
2023-12-16T09:23:38.176Z,101467.75
2023-12-16T09:26:08.572Z,101468.50
2023-12-16T09:28:37.608Z,101461.28
2023-12-16T09:31:06.963Z,101454.75
2023-12-16T09:33:35.819Z,101446.94
2023-12-16T09:36:05.362Z,101449.53
2023-12-16T09:38:35.459Z,101456.56
2023-12-16T09:41:04.194Z,101460.94
2023-12-16T09:43:35.988Z,101459.00
2023-12-16T09:46:05.159Z,101440.50
2023-12-16T09:48:33.984Z,101438.63
2023-12-16T09:51:02.932Z,101437.56
2023-12-16T09:53:31.529Z,101435.75
2023-12-16T09:56:02.072Z,101442.75
2023-12-16T09:58:32.150Z,101441.03
2023-12-16T10:01:01.182Z,101443.69
2023-12-16T10:03:31.189Z,101433.81
2023-12-16T10:06:00.116Z,101432.00
2023-12-16T10:08:28.774Z,101437.22
2023-12-16T10:11:11.910Z,101438.00
2023-12-16T10:14:01.413Z,101428.13
2023-12-16T10:16:30.537Z,101436.06
2023-12-16T10:19:00.597Z,101428.00
2023-12-16T10:21:30.749Z,101434.97
2023-12-16T10:24:00.839Z,101425.91
2023-12-16T10:26:32.013Z,101430.22
2023-12-16T10:29:05.691Z,101424.81
2023-12-16T10:31:35.194Z,101419.41
2023-12-16T10:34:04.354Z,101422.09
2023-12-16T10:36:33.806Z,101420.19
2023-12-16T10:39:02.389Z,101426.31
2023-12-16T10:41:32.797Z,101418.19
2023-12-16T10:44:01.667Z,101421.78
2023-12-16T10:46:37.176Z,101421.72
2023-12-16T10:49:10.540Z,101419.00
2023-12-16T10:51:45.501Z,101423.38
2023-12-16T10:54:20.336Z,101421.41
2023-12-16T10:57:01.292Z,101414.19
2023-12-16T10:59:35.008Z,101411.47
2023-12-16T11:02:09.711Z,101408.91
2023-12-16T11:04:41.010Z,101416.47
2023-12-16T11:07:12.436Z,101407.66
2023-12-16T11:09:42.297Z,101409.38
2023-12-16T11:12:13.095Z,101408.38
2023-12-16T11:14:42.805Z,101409.22
2023-12-16T11:17:18.306Z,101408.44
2023-12-16T11:19:57.309Z,101410.88
2023-12-16T11:22:26.722Z,101407.56
2023-12-16T11:24:55.368Z,101413.75
2023-12-16T11:27:25.706Z,101410.03
2023-12-16T11:29:54.317Z,101414.44
2023-12-16T11:32:24.617Z,101401.19
2023-12-16T11:34:54.902Z,101396.59
2023-12-16T11:37:44.960Z,101394.78
2023-12-16T11:40:41.698Z,101400.88
2023-12-16T11:43:12.217Z,101394.78
2023-12-16T11:45:42.482Z,101400.94
2023-12-16T11:48:12.262Z,101406.22
2023-12-16T11:50:45.722Z,101402.63
2023-12-16T11:53:15.593Z,101393.91
2023-12-16T11:55:44.326Z,101395.59
2023-12-16T11:58:14.745Z,101398.22
2023-12-16T12:00:43.379Z,101406.19
2023-12-16T12:03:12.971Z,101401.69
2023-12-16T12:05:42.388Z,101386.69
2023-12-16T12:08:11.022Z,101385.78
2023-12-16T12:10:39.717Z,101381.34
2023-12-16T12:13:08.356Z,101375.19
2023-12-16T12:15:38.468Z,101363.59
2023-12-16T12:18:07.429Z,101369.81
2023-12-16T12:20:36.163Z,101371.56
2023-12-16T12:23:05.933Z,101371.56
2023-12-16T12:25:36.237Z,101365.19
2023-12-16T12:28:11.277Z,101365.31
2023-12-16T12:30:41.301Z,101362.63
2023-12-16T12:33:09.067Z,101352.94
2023-12-16T12:35:37.647Z,101355.66
2023-12-16T12:38:06.152Z,101357.41
2023-12-16T12:40:34.622Z,101353.91
2023-12-16T12:43:03.205Z,101358.31
2023-12-16T12:45:33.224Z,101358.22
2023-12-16T12:48:18.926Z,101357.41
2023-12-16T12:50:48.875Z,101361.06
2023-12-16T12:53:23.311Z,101366.34
2023-12-16T12:55:55.652Z,101360.16
2023-12-16T12:58:29.986Z,101354.84
2023-12-16T13:01:01.306Z,101358.53
2023-12-16T13:03:33.864Z,101361.13
2023-12-16T13:06:07.300Z,101358.53
2023-12-16T13:08:38.149Z,101350.59
2023-12-16T13:11:07.625Z,101353.06
2023-12-16T13:13:36.347Z,101354.91
2023-12-16T13:16:05.517Z,101352.25
2023-12-16T13:18:42.302Z,101351.41
2023-12-16T13:21:11.172Z,101342.41
2023-12-16T13:23:40.199Z,101339.69
2023-12-16T13:26:12.765Z,101335.22
2023-12-16T13:28:42.696Z,101337.84
2023-12-16T13:31:11.602Z,101325.44
2023-12-16T13:33:43.924Z,101322.78
2023-12-16T13:36:33.202Z,101328.78
2023-12-16T13:39:01.708Z,101326.25
2023-12-16T13:41:31.293Z,101328.94
2023-12-16T13:43:59.990Z,101329.56
2023-12-16T13:46:28.713Z,101327.97
2023-12-16T13:49:02.281Z,101318.13
2023-12-16T13:51:34.837Z,101313.66
2023-12-16T13:54:09.239Z,101306.72
2023-12-16T13:56:40.293Z,101306.75
2023-12-16T13:59:11.768Z,101302.34
2023-12-16T14:01:40.416Z,101310.34
2023-12-16T14:04:13.189Z,101318.28
2023-12-16T14:06:42.264Z,101320.13
2023-12-16T14:09:11.124Z,101321.00
2023-12-16T14:11:39.856Z,101305.97
2023-12-16T14:14:08.658Z,101312.00
2023-12-16T14:16:37.377Z,101304.00
2023-12-16T14:19:06.623Z,101287.16
2023-12-16T14:21:36.776Z,101288.78
2023-12-16T14:24:06.071Z,101291.44
2023-12-16T14:26:34.867Z,101286.31
2023-12-16T14:29:03.615Z,101279.16
2023-12-16T14:31:32.404Z,101268.38
2023-12-16T14:34:01.667Z,101257.78
2023-12-16T14:36:32.858Z,101252.47
2023-12-16T14:39:03.097Z,101254.13
2023-12-16T14:41:32.173Z,101249.81
2023-12-16T14:44:00.783Z,101248.94
2023-12-16T14:46:29.340Z,101239.31
2023-12-16T14:48:58.728Z,101233.31
2023-12-16T14:51:27.503Z,101238.47
2023-12-16T14:53:56.486Z,101235.91
2023-12-16T14:56:26.808Z,101232.19
2023-12-16T14:58:58.106Z,101232.31
2023-12-16T15:01:27.526Z,101227.81
2023-12-16T15:03:57.061Z,101224.31
2023-12-16T15:06:30.537Z,101216.41
2023-12-16T15:09:01.059Z,101214.56
2023-12-16T15:11:31.751Z,101217.28
2023-12-16T15:14:00.598Z,101210.25
2023-12-16T15:16:29.208Z,101199.72
2023-12-16T15:18:58.756Z,101190.84
2023-12-16T15:21:27.470Z,101194.22
2023-12-16T15:23:56.401Z,101184.59
2023-12-16T15:26:27.485Z,101186.41
2023-12-16T15:28:58.765Z,101168.72
2023-12-16T15:31:27.161Z,101169.50
2023-12-16T15:33:56.345Z,101152.81
2023-12-16T15:36:25.228Z,101140.22
2023-12-16T15:38:54.012Z,101139.34
2023-12-16T15:41:25.706Z,101138.50
2023-12-16T15:43:57.241Z,101150.00
2023-12-16T15:46:29.152Z,101137.63
2023-12-16T15:48:58.098Z,101127.16
2023-12-16T15:51:27.384Z,101119.22
2023-12-16T15:53:56.482Z,101125.03
2023-12-16T15:56:28.698Z,101129.47
2023-12-16T15:58:57.368Z,101123.16
2023-12-16T16:01:28.115Z,101121.59
2023-12-16T16:03:58.823Z,101106.69
2023-12-16T16:06:30.634Z,101108.22
2023-12-16T16:09:01.700Z,101102.97
2023-12-16T16:11:31.665Z,101096.88
2023-12-16T16:14:00.511Z,101094.09
2023-12-16T16:16:37.558Z,101090.50
2023-12-16T16:19:07.720Z,101080.84
2023-12-16T16:21:38.083Z,101087.00
2023-12-16T16:24:07.310Z,101083.19
2023-12-16T16:26:37.595Z,101084.94
2023-12-16T16:29:06.233Z,101083.19
2023-12-16T16:31:39.190Z,101087.66
2023-12-16T16:34:08.310Z,101087.72
2023-12-16T16:36:37.289Z,101081.19
2023-12-16T16:39:06.551Z,101061.84
2023-12-16T16:41:35.357Z,101054.69
2023-12-16T16:44:04.395Z,101059.13
2023-12-16T16:46:37.662Z,101063.38
2023-12-16T16:49:09.192Z,101042.94
2023-12-16T16:55:09.196Z,101021.16
2023-12-16T16:57:38.287Z,101028.75
2023-12-16T17:00:10.769Z,101033.22
2023-12-16T17:02:41.686Z,101021.41
2023-12-16T17:05:11.403Z,101015.31
2023-12-16T17:07:40.399Z,101013.72
2023-12-16T17:10:10.069Z,101005.75
2023-12-16T17:12:38.973Z,100996.44
2023-12-16T17:15:08.915Z,100997.22
2023-12-16T17:17:38.386Z,100987.78
2023-12-16T17:20:11.920Z,100993.88
2023-12-16T17:22:42.026Z,100986.69
2023-12-16T17:25:11.868Z,100977.88
2023-12-16T17:27:40.838Z,100965.72
2023-12-16T17:30:10.974Z,100956.13
2023-12-16T17:32:39.870Z,100949.00
2023-12-16T17:35:10.668Z,100937.56
2023-12-16T17:37:39.930Z,100935.91
2023-12-16T17:40:10.274Z,100940.41
2023-12-16T17:42:39.159Z,100928.88
2023-12-16T17:45:09.157Z,100925.00
2023-12-16T17:47:38.594Z,100921.53
2023-12-16T17:50:10.045Z,100917.97
2023-12-16T17:52:38.706Z,100916.41
2023-12-16T17:55:12.533Z,100910.16
2023-12-16T17:57:42.182Z,100900.50
2023-12-16T18:00:11.902Z,100884.59
2023-12-16T18:02:40.876Z,100879.28
2023-12-16T18:05:12.225Z,100869.63
2023-12-16T18:07:41.396Z,100854.41
2023-12-16T18:10:10.676Z,100839.44
2023-12-16T18:12:40.363Z,100829.47
2023-12-16T18:15:10.744Z,100826.72
2023-12-16T18:17:39.883Z,100821.41
2023-12-16T18:20:12.004Z,100818.59
2023-12-16T18:22:41.613Z,100808.94
2023-12-16T18:25:10.740Z,100806.13
2023-12-16T18:27:39.832Z,100799.81
2023-12-16T18:30:11.500Z,100797.38
2023-12-16T18:32:40.499Z,100794.59
2023-12-16T18:35:12.878Z,100788.50
2023-12-16T18:37:47.823Z,100791.97
2023-12-16T18:40:24.772Z,100784.91
2023-12-16T18:43:03.775Z,100772.44
2023-12-16T18:45:34.111Z,100765.88
2023-12-16T18:48:03.604Z,100768.38
2023-12-16T18:50:33.932Z,100764.94
2023-12-16T18:53:02.631Z,100760.50
2023-12-16T18:55:31.214Z,100752.31
2023-12-16T18:57:59.805Z,100752.38
2023-12-16T19:00:28.787Z,100737.50
2023-12-16T19:02:57.559Z,100728.44
2023-12-16T19:05:26.117Z,100697.72
2023-12-16T19:07:56.779Z,100699.28
2023-12-16T19:10:25.700Z,100687.72
2023-12-16T19:12:54.558Z,100687.38
2023-12-16T19:15:23.381Z,100677.13
2023-12-16T19:17:54.984Z,100665.28
2023-12-16T19:20:23.966Z,100659.75
2023-12-16T19:22:54.209Z,100653.25
2023-12-16T19:25:24.349Z,100644.19
2023-12-16T19:27:54.909Z,100637.91
2023-12-16T19:30:23.692Z,100642.91
2023-12-16T19:32:52.405Z,100637.66
2023-12-16T19:35:21.070Z,100637.53
2023-12-16T19:37:49.532Z,100626.91
2023-12-16T19:40:18.360Z,100615.88
2023-12-16T19:42:48.439Z,100589.75
2023-12-16T19:45:17.116Z,100589.41
2023-12-16T19:47:45.898Z,100574.31
2023-12-16T19:50:15.123Z,100566.81
2023-12-16T19:52:43.621Z,100566.09
2023-12-16T19:55:12.832Z,100557.22
2023-12-16T19:57:41.557Z,100545.06
2023-12-16T20:00:13.004Z,100539.75
2023-12-16T20:02:43.243Z,100547.53
2023-12-16T20:05:12.125Z,100536.00
2023-12-16T20:07:40.998Z,100533.03
2023-12-16T20:10:12.106Z,100532.38
2023-12-16T20:12:40.691Z,100532.78
2023-12-16T20:15:11.527Z,100535.63
2023-12-16T20:17:43.212Z,100528.63
2023-12-16T20:20:14.153Z,100521.38
2023-12-16T20:22:43.095Z,100510.97
2023-12-16T20:25:11.731Z,100501.56
2023-12-16T20:27:41.663Z,100492.97
2023-12-16T20:30:12.718Z,100481.50
2023-12-16T20:32:41.480Z,100477.22
2023-12-16T20:35:12.157Z,100479.69
2023-12-16T20:37:41.473Z,100462.34
2023-12-16T20:40:28.904Z,100449.91
2023-12-16T20:42:57.382Z,100450.50
2023-12-16T20:45:29.368Z,100444.25
2023-12-16T20:47:59.041Z,100433.72
2023-12-16T20:50:29.017Z,100421.28
2023-12-16T20:53:00.059Z,100421.72
2023-12-16T20:55:30.855Z,100416.19
2023-12-16T20:57:59.706Z,100419.41
2023-12-16T21:00:29.790Z,100400.63
2023-12-16T21:02:59.475Z,100399.00
2023-12-16T21:05:28.126Z,100404.25
2023-12-16T21:07:56.628Z,100393.81
2023-12-16T21:10:25.077Z,100386.03
2023-12-16T21:12:53.937Z,100357.59
2023-12-16T21:15:22.692Z,100350.19
2023-12-16T21:17:52.911Z,100342.91
2023-12-16T21:20:21.799Z,100346.59
2023-12-16T21:22:50.641Z,100334.94
2023-12-16T21:25:19.308Z,100321.38
2023-12-16T21:27:47.822Z,100304.50
2023-12-16T21:30:17.127Z,100304.69
2023-12-16T21:32:45.884Z,100301.84
2023-12-16T21:35:15.913Z,100293.97
2023-12-16T21:37:44.483Z,100273.47
2023-12-16T21:40:13.586Z,100273.00
2023-12-16T21:42:42.330Z,100264.47
2023-12-16T21:45:11.843Z,100258.41
2023-12-16T21:47:40.841Z,100252.91
2023-12-16T21:50:11.542Z,100246.50
2023-12-16T21:52:41.777Z,100245.25
2023-12-16T21:55:10.578Z,100243.16
2023-12-16T21:57:39.652Z,100245.31
2023-12-16T22:00:09.930Z,100250.25
2023-12-16T22:02:38.767Z,100256.34
2023-12-16T22:05:08.678Z,100256.44
2023-12-16T22:07:37.538Z,100251.22
2023-12-16T22:10:09.421Z,100238.81
2023-12-16T22:12:38.082Z,100239.66
2023-12-16T22:15:08.533Z,100243.25
2023-12-16T22:17:37.569Z,100228.19
2023-12-16T22:20:07.500Z,100232.44
2023-12-16T22:22:36.100Z,100242.22
2023-12-16T22:25:05.654Z,100242.31
2023-12-16T22:27:35.811Z,100238.06
2023-12-16T22:30:04.801Z,100234.34
2023-12-16T22:32:33.702Z,100218.91
2023-12-16T22:35:02.262Z,100211.50
2023-12-16T22:37:30.992Z,100196.78
2023-12-16T22:40:00.227Z,100198.31
2023-12-16T22:42:28.869Z,100204.09
2023-12-16T22:44:59.167Z,100201.50
2023-12-16T22:47:27.962Z,100206.06
2023-12-16T22:49:56.691Z,100196.00
2023-12-16T22:52:25.349Z,100194.66
2023-12-16T22:54:53.996Z,100190.41
2023-12-16T22:57:23.823Z,100195.81
2023-12-16T22:59:52.686Z,100193.72
2023-12-16T23:02:23.739Z,100185.19
2023-12-16T23:04:52.205Z,100186.88
2023-12-16T23:07:21.031Z,100183.38
2023-12-16T23:09:49.543Z,100185.38
2023-12-16T23:12:18.219Z,100180.78
2023-12-16T23:14:46.786Z,100174.16
2023-12-16T23:17:15.429Z,100165.81
2023-12-16T23:19:45.450Z,100156.78
2023-12-16T23:22:13.997Z,100146.56
2023-12-16T23:24:42.689Z,100155.66
2023-12-16T23:27:12.284Z,100157.47
2023-12-16T23:29:41.170Z,100158.03
2023-12-16T23:32:09.882Z,100139.03
2023-12-16T23:34:38.429Z,100140.44
2023-12-16T23:37:08.473Z,100124.91
2023-12-16T23:39:37.182Z,100116.44
2023-12-16T23:42:06.543Z,100104.94
2023-12-16T23:44:35.166Z,100105.06
2023-12-16T23:47:04.133Z,100105.59
2023-12-16T23:49:32.789Z,100095.50
2023-12-16T23:52:01.437Z,100099.09
2023-12-16T23:54:31.677Z,100101.44
2023-12-16T23:57:00.241Z,100095.94
2023-12-16T23:59:28.899Z,100092.84
